sensor_id;sensor_type;location;lat;lon;timestamp;temperature;humidity
29321;DHT22;16323;51.130;6.612;2023-06-04T00:01:59;16.50;47.90
29321;DHT22;16323;51.130;6.612;2023-06-04T00:04:26;16.50;47.90
29321;DHT22;16323;51.130;6.612;2023-06-04T00:06:54;16.50;48.10
29321;DHT22;16323;51.130;6.612;2023-06-04T00:09:20;16.40;48.10
29321;DHT22;16323;51.130;6.612;2023-06-04T00:11:47;16.40;47.80
29321;DHT22;16323;51.130;6.612;2023-06-04T00:14:14;16.50;47.50
29321;DHT22;16323;51.130;6.612;2023-06-04T00:16:42;16.40;48.10
29321;DHT22;16323;51.130;6.612;2023-06-04T00:19:09;16.40;48.20
29321;DHT22;16323;51.130;6.612;2023-06-04T00:21:36;16.30;48.20
29321;DHT22;16323;51.130;6.612;2023-06-04T00:24:03;16.30;48.30
29321;DHT22;16323;51.130;6.612;2023-06-04T00:26:30;16.30;48.40
29321;DHT22;16323;51.130;6.612;2023-06-04T00:28:57;16.20;48.70
29321;DHT22;16323;51.130;6.612;2023-06-04T00:31:23;16.20;49.00
29321;DHT22;16323;51.130;6.612;2023-06-04T00:33:52;16.10;48.50
29321;DHT22;16323;51.130;6.612;2023-06-04T00:36:19;16.10;49.10
29321;DHT22;16323;51.130;6.612;2023-06-04T00:38:46;16.10;48.80
29321;DHT22;16323;51.130;6.612;2023-06-04T00:41:13;16.10;48.80
29321;DHT22;16323;51.130;6.612;2023-06-04T00:43:39;16.00;49.60
29321;DHT22;16323;51.130;6.612;2023-06-04T00:46:11;16.00;50.00
29321;DHT22;16323;51.130;6.612;2023-06-04T00:48:43;16.00;49.60
29321;DHT22;16323;51.130;6.612;2023-06-04T00:51:11;15.90;49.70
29321;DHT22;16323;51.130;6.612;2023-06-04T00:53:38;15.90;50.20
29321;DHT22;16323;51.130;6.612;2023-06-04T00:56:05;15.90;49.50
29321;DHT22;16323;51.130;6.612;2023-06-04T00:58:33;15.80;50.10
29321;DHT22;16323;51.130;6.612;2023-06-04T01:01:04;15.60;49.90
29321;DHT22;16323;51.130;6.612;2023-06-04T01:03:33;15.50;50.50
29321;DHT22;16323;51.130;6.612;2023-06-04T01:06:13;15.60;50.30
29321;DHT22;16323;51.130;6.612;2023-06-04T01:08:46;15.70;50.00
29321;DHT22;16323;51.130;6.612;2023-06-04T01:11:14;15.70;50.00
29321;DHT22;16323;51.130;6.612;2023-06-04T01:13:41;15.60;50.00
29321;DHT22;16323;51.130;6.612;2023-06-04T01:16:10;15.60;49.90
29321;DHT22;16323;51.130;6.612;2023-06-04T01:18:39;15.60;49.90
29321;DHT22;16323;51.130;6.612;2023-06-04T01:21:08;15.70;50.20
29321;DHT22;16323;51.130;6.612;2023-06-04T01:23:43;15.80;50.10
29321;DHT22;16323;51.130;6.612;2023-06-04T01:26:13;15.80;50.10
29321;DHT22;16323;51.130;6.612;2023-06-04T01:28:40;15.80;50.10
29321;DHT22;16323;51.130;6.612;2023-06-04T01:31:08;15.70;50.40
29321;DHT22;16323;51.130;6.612;2023-06-04T01:33:35;15.60;50.60
29321;DHT22;16323;51.130;6.612;2023-06-04T01:36:02;15.50;50.40
29321;DHT22;16323;51.130;6.612;2023-06-04T01:38:29;15.40;51.30
29321;DHT22;16323;51.130;6.612;2023-06-04T01:40:57;15.30;51.60
29321;DHT22;16323;51.130;6.612;2023-06-04T01:43:27;15.40;51.50
29321;DHT22;16323;51.130;6.612;2023-06-04T01:45:54;15.50;51.40
29321;DHT22;16323;51.130;6.612;2023-06-04T01:48:22;15.60;50.90
29321;DHT22;16323;51.130;6.612;2023-06-04T01:50:48;15.60;50.30
29321;DHT22;16323;51.130;6.612;2023-06-04T01:53:15;15.60;50.80
29321;DHT22;16323;51.130;6.612;2023-06-04T01:55:42;15.60;50.20
29321;DHT22;16323;51.130;6.612;2023-06-04T01:58:11;15.60;50.40
29321;DHT22;16323;51.130;6.612;2023-06-04T02:00:38;15.50;51.00
29321;DHT22;16323;51.130;6.612;2023-06-04T02:03:04;15.50;51.10
29321;DHT22;16323;51.130;6.612;2023-06-04T02:05:31;15.50;51.40
29321;DHT22;16323;51.130;6.612;2023-06-04T02:07:58;15.50;51.00
29321;DHT22;16323;51.130;6.612;2023-06-04T02:10:27;15.40;51.80
29321;DHT22;16323;51.130;6.612;2023-06-04T02:12:56;15.30;51.70
29321;DHT22;16323;51.130;6.612;2023-06-04T02:15:25;15.30;51.90
29321;DHT22;16323;51.130;6.612;2023-06-04T02:17:55;15.40;53.10
29321;DHT22;16323;51.130;6.612;2023-06-04T02:20:24;15.40;51.80
29321;DHT22;16323;51.130;6.612;2023-06-04T02:22:50;15.40;52.20
29321;DHT22;16323;51.130;6.612;2023-06-04T02:25:17;15.40;51.80
29321;DHT22;16323;51.130;6.612;2023-06-04T02:27:44;15.40;52.00
29321;DHT22;16323;51.130;6.612;2023-06-04T02:30:11;15.30;51.80
29321;DHT22;16323;51.130;6.612;2023-06-04T02:32:39;15.30;52.20
29321;DHT22;16323;51.130;6.612;2023-06-04T02:35:06;15.20;52.20
29321;DHT22;16323;51.130;6.612;2023-06-04T02:37:33;15.20;53.10
29321;DHT22;16323;51.130;6.612;2023-06-04T02:40:00;15.20;52.90
29321;DHT22;16323;51.130;6.612;2023-06-04T02:42:27;15.20;52.80
29321;DHT22;16323;51.130;6.612;2023-06-04T02:44:53;15.20;53.30
29321;DHT22;16323;51.130;6.612;2023-06-04T02:47:20;15.10;53.60
29321;DHT22;16323;51.130;6.612;2023-06-04T02:49:48;15.00;53.50
29321;DHT22;16323;51.130;6.612;2023-06-04T02:52:15;15.00;54.10
29321;DHT22;16323;51.130;6.612;2023-06-04T02:54:42;14.90;53.70
29321;DHT22;16323;51.130;6.612;2023-06-04T02:57:08;14.90;54.20
29321;DHT22;16323;51.130;6.612;2023-06-04T02:59:35;14.90;54.80
29321;DHT22;16323;51.130;6.612;2023-06-04T03:02:04;14.80;54.90
29321;DHT22;16323;51.130;6.612;2023-06-04T03:04:31;14.80;55.10
29321;DHT22;16323;51.130;6.612;2023-06-04T03:07:01;14.80;55.40
29321;DHT22;16323;51.130;6.612;2023-06-04T03:09:28;14.70;55.50
29321;DHT22;16323;51.130;6.612;2023-06-04T03:11:58;14.70;55.50
29321;DHT22;16323;51.130;6.612;2023-06-04T03:14:26;14.60;55.90
29321;DHT22;16323;51.130;6.612;2023-06-04T03:16:58;14.70;55.90
29321;DHT22;16323;51.130;6.612;2023-06-04T03:19:26;14.70;56.10
29321;DHT22;16323;51.130;6.612;2023-06-04T03:21:53;14.60;56.40
29321;DHT22;16323;51.130;6.612;2023-06-04T03:24:21;14.60;56.60
29321;DHT22;16323;51.130;6.612;2023-06-04T03:26:48;14.70;56.40
29321;DHT22;16323;51.130;6.612;2023-06-04T03:29:15;14.60;56.70
29321;DHT22;16323;51.130;6.612;2023-06-04T03:31:44;14.60;56.60
29321;DHT22;16323;51.130;6.612;2023-06-04T03:34:11;14.70;56.80
29321;DHT22;16323;51.130;6.612;2023-06-04T03:36:38;14.80;56.50
29321;DHT22;16323;51.130;6.612;2023-06-04T03:39:04;14.70;57.10
29321;DHT22;16323;51.130;6.612;2023-06-04T03:41:32;14.60;57.40
29321;DHT22;16323;51.130;6.612;2023-06-04T03:43:59;14.60;57.80
29321;DHT22;16323;51.130;6.612;2023-06-04T03:46:26;14.60;57.80
29321;DHT22;16323;51.130;6.612;2023-06-04T03:48:57;14.50;58.10
29321;DHT22;16323;51.130;6.612;2023-06-04T03:51:23;14.50;58.40
29321;DHT22;16323;51.130;6.612;2023-06-04T03:53:50;14.60;58.50
29321;DHT22;16323;51.130;6.612;2023-06-04T03:56:18;14.50;58.60
29321;DHT22;16323;51.130;6.612;2023-06-04T03:58:46;14.60;58.50
29321;DHT22;16323;51.130;6.612;2023-06-04T04:01:13;14.60;58.90
29321;DHT22;16323;51.130;6.612;2023-06-04T04:03:40;14.60;59.00
29321;DHT22;16323;51.130;6.612;2023-06-04T04:06:09;14.60;59.10
29321;DHT22;16323;51.130;6.612;2023-06-04T04:08:36;14.60;59.10
29321;DHT22;16323;51.130;6.612;2023-06-04T04:11:07;14.60;59.20
29321;DHT22;16323;51.130;6.612;2023-06-04T04:13:34;14.50;59.80
29321;DHT22;16323;51.130;6.612;2023-06-04T04:16:02;14.60;59.80
29321;DHT22;16323;51.130;6.612;2023-06-04T04:18:32;14.60;60.10
29321;DHT22;16323;51.130;6.612;2023-06-04T04:21:00;14.70;60.00
29321;DHT22;16323;51.130;6.612;2023-06-04T04:23:28;14.60;60.20
29321;DHT22;16323;51.130;6.612;2023-06-04T04:25:55;14.60;60.50
29321;DHT22;16323;51.130;6.612;2023-06-04T04:28:24;14.60;60.50
29321;DHT22;16323;51.130;6.612;2023-06-04T04:30:54;14.60;60.80
29321;DHT22;16323;51.130;6.612;2023-06-04T04:33:23;14.60;61.00
29321;DHT22;16323;51.130;6.612;2023-06-04T04:35:51;14.60;60.90
29321;DHT22;16323;51.130;6.612;2023-06-04T04:38:17;14.70;60.80
29321;DHT22;16323;51.130;6.612;2023-06-04T04:40:44;14.80;60.60
29321;DHT22;16323;51.130;6.612;2023-06-04T04:43:13;14.90;60.40
29321;DHT22;16323;51.130;6.612;2023-06-04T04:45:40;14.90;60.30
29321;DHT22;16323;51.130;6.612;2023-06-04T04:48:07;15.00;60.30
29321;DHT22;16323;51.130;6.612;2023-06-04T04:50:35;14.90;60.00
29321;DHT22;16323;51.130;6.612;2023-06-04T04:53:02;14.90;60.20
29321;DHT22;16323;51.130;6.612;2023-06-04T04:55:29;14.90;60.20
29321;DHT22;16323;51.130;6.612;2023-06-04T04:57:55;14.70;61.20
29321;DHT22;16323;51.130;6.612;2023-06-04T05:00:22;14.80;61.00
29321;DHT22;16323;51.130;6.612;2023-06-04T05:02:49;14.90;60.50
29321;DHT22;16323;51.130;6.612;2023-06-04T05:05:16;14.90;60.80
29321;DHT22;16323;51.130;6.612;2023-06-04T05:07:44;14.80;61.00
29321;DHT22;16323;51.130;6.612;2023-06-04T05:10:11;14.70;60.80
29321;DHT22;16323;51.130;6.612;2023-06-04T05:12:38;14.90;61.10
29321;DHT22;16323;51.130;6.612;2023-06-04T05:15:06;15.00;60.90
29321;DHT22;16323;51.130;6.612;2023-06-04T05:17:33;15.10;60.10
29321;DHT22;16323;51.130;6.612;2023-06-04T05:20:01;15.10;61.00
29321;DHT22;16323;51.130;6.612;2023-06-04T05:22:29;15.10;60.60
29321;DHT22;16323;51.130;6.612;2023-06-04T05:24:58;15.20;60.70
29321;DHT22;16323;51.130;6.612;2023-06-04T05:27:26;15.20;60.90
29321;DHT22;16323;51.130;6.612;2023-06-04T05:29:53;15.20;61.00
29321;DHT22;16323;51.130;6.612;2023-06-04T05:32:20;15.20;60.80
29321;DHT22;16323;51.130;6.612;2023-06-04T05:34:48;15.30;60.30
29321;DHT22;16323;51.130;6.612;2023-06-04T05:37:15;15.40;60.30
29321;DHT22;16323;51.130;6.612;2023-06-04T05:39:42;15.30;60.30
29321;DHT22;16323;51.130;6.612;2023-06-04T05:42:10;15.30;60.20
29321;DHT22;16323;51.130;6.612;2023-06-04T05:44:37;15.40;59.80
29321;DHT22;16323;51.130;6.612;2023-06-04T05:47:04;15.40;59.70
29321;DHT22;16323;51.130;6.612;2023-06-04T05:49:33;15.40;59.50
29321;DHT22;16323;51.130;6.612;2023-06-04T05:52:00;15.40;59.50
29321;DHT22;16323;51.130;6.612;2023-06-04T05:54:28;15.40;59.80
29321;DHT22;16323;51.130;6.612;2023-06-04T05:56:55;15.40;59.60
29321;DHT22;16323;51.130;6.612;2023-06-04T05:59:23;15.50;59.80
29321;DHT22;16323;51.130;6.612;2023-06-04T06:01:50;15.70;59.10
29321;DHT22;16323;51.130;6.612;2023-06-04T06:04:17;15.80;58.70
29321;DHT22;16323;51.130;6.612;2023-06-04T06:06:44;15.80;58.80
29321;DHT22;16323;51.130;6.612;2023-06-04T06:09:12;15.80;58.50
29321;DHT22;16323;51.130;6.612;2023-06-04T06:11:40;15.80;59.60
29321;DHT22;16323;51.130;6.612;2023-06-04T06:14:07;15.90;59.20
29321;DHT22;16323;51.130;6.612;2023-06-04T06:16:36;16.00;58.80
29321;DHT22;16323;51.130;6.612;2023-06-04T06:19:03;16.00;59.20
29321;DHT22;16323;51.130;6.612;2023-06-04T06:21:30;15.90;58.70
29321;DHT22;16323;51.130;6.612;2023-06-04T06:23:56;16.00;58.90
29321;DHT22;16323;51.130;6.612;2023-06-04T06:26:23;16.10;58.50
29321;DHT22;16323;51.130;6.612;2023-06-04T06:28:50;16.20;58.70
29321;DHT22;16323;51.130;6.612;2023-06-04T06:31:17;16.40;58.20
29321;DHT22;16323;51.130;6.612;2023-06-04T06:33:45;17.00;56.70
29321;DHT22;16323;51.130;6.612;2023-06-04T06:36:12;17.30;55.60
29321;DHT22;16323;51.130;6.612;2023-06-04T06:38:39;17.40;55.00
29321;DHT22;16323;51.130;6.612;2023-06-04T06:41:07;17.40;54.70
29321;DHT22;16323;51.130;6.612;2023-06-04T06:43:34;17.50;54.70
29321;DHT22;16323;51.130;6.612;2023-06-04T06:46:01;17.60;54.40
29321;DHT22;16323;51.130;6.612;2023-06-04T06:48:27;17.70;53.80
29321;DHT22;16323;51.130;6.612;2023-06-04T06:50:56;17.70;53.40
29321;DHT22;16323;51.130;6.612;2023-06-04T06:53:22;17.70;53.30
29321;DHT22;16323;51.130;6.612;2023-06-04T06:55:49;17.60;53.40
29321;DHT22;16323;51.130;6.612;2023-06-04T06:58:16;17.70;53.60
29321;DHT22;16323;51.130;6.612;2023-06-04T07:00:43;17.70;52.90
29321;DHT22;16323;51.130;6.612;2023-06-04T07:03:09;17.80;53.10
29321;DHT22;16323;51.130;6.612;2023-06-04T07:05:36;17.90;53.30
29321;DHT22;16323;51.130;6.612;2023-06-04T07:08:05;18.00;52.20
29321;DHT22;16323;51.130;6.612;2023-06-04T07:10:31;17.90;52.70
29321;DHT22;16323;51.130;6.612;2023-06-04T07:12:58;18.00;52.30
29321;DHT22;16323;51.130;6.612;2023-06-04T07:15:25;18.00;52.20
29321;DHT22;16323;51.130;6.612;2023-06-04T07:17:52;18.00;52.20
29321;DHT22;16323;51.130;6.612;2023-06-04T07:20:19;18.00;52.20
29321;DHT22;16323;51.130;6.612;2023-06-04T07:22:45;18.00;52.40
29321;DHT22;16323;51.130;6.612;2023-06-04T07:25:14;18.10;52.30
29321;DHT22;16323;51.130;6.612;2023-06-04T07:27:40;18.20;52.40
29321;DHT22;16323;51.130;6.612;2023-06-04T07:30:08;18.20;53.30
29321;DHT22;16323;51.130;6.612;2023-06-04T07:32:35;18.30;53.50
29321;DHT22;16323;51.130;6.612;2023-06-04T07:35:02;18.40;53.60
29321;DHT22;16323;51.130;6.612;2023-06-04T07:37:29;18.50;52.70
29321;DHT22;16323;51.130;6.612;2023-06-04T07:39:56;18.60;52.80
29321;DHT22;16323;51.130;6.612;2023-06-04T07:42:24;18.60;52.80
29321;DHT22;16323;51.130;6.612;2023-06-04T07:44:51;18.60;52.00
29321;DHT22;16323;51.130;6.612;2023-06-04T07:47:18;18.60;51.40
29321;DHT22;16323;51.130;6.612;2023-06-04T07:49:44;18.60;50.60
29321;DHT22;16323;51.130;6.612;2023-06-04T07:52:11;18.60;52.00
29321;DHT22;16323;51.130;6.612;2023-06-04T07:54:38;18.60;52.10
29321;DHT22;16323;51.130;6.612;2023-06-04T07:57:06;18.60;51.70
29321;DHT22;16323;51.130;6.612;2023-06-04T07:59:35;18.60;51.90
29321;DHT22;16323;51.130;6.612;2023-06-04T08:02:02;18.60;51.50
29321;DHT22;16323;51.130;6.612;2023-06-04T08:04:29;18.60;51.50
29321;DHT22;16323;51.130;6.612;2023-06-04T08:06:56;18.60;50.90
29321;DHT22;16323;51.130;6.612;2023-06-04T08:09:23;18.60;51.40
29321;DHT22;16323;51.130;6.612;2023-06-04T08:11:50;18.70;50.90
29321;DHT22;16323;51.130;6.612;2023-06-04T08:14:17;18.60;50.50
29321;DHT22;16323;51.130;6.612;2023-06-04T08:16:46;18.70;51.30
29321;DHT22;16323;51.130;6.612;2023-06-04T08:19:13;18.80;52.00
29321;DHT22;16323;51.130;6.612;2023-06-04T08:21:41;18.90;50.40
29321;DHT22;16323;51.130;6.612;2023-06-04T08:24:08;18.90;51.20
29321;DHT22;16323;51.130;6.612;2023-06-04T08:26:35;18.90;50.40
29321;DHT22;16323;51.130;6.612;2023-06-04T08:29:03;18.90;50.40
29321;DHT22;16323;51.130;6.612;2023-06-04T08:31:30;18.90;48.80
29321;DHT22;16323;51.130;6.612;2023-06-04T08:33:58;18.90;49.90
29321;DHT22;16323;51.130;6.612;2023-06-04T08:36:27;19.00;49.40
29321;DHT22;16323;51.130;6.612;2023-06-04T08:38:54;19.00;48.40
29321;DHT22;16323;51.130;6.612;2023-06-04T08:41:25;18.90;49.10
29321;DHT22;16323;51.130;6.612;2023-06-04T08:43:56;18.90;48.50
29321;DHT22;16323;51.130;6.612;2023-06-04T08:46:23;19.00;50.70
29321;DHT22;16323;51.130;6.612;2023-06-04T08:48:50;19.00;49.70
29321;DHT22;16323;51.130;6.612;2023-06-04T08:51:19;19.00;50.70
29321;DHT22;16323;51.130;6.612;2023-06-04T08:53:46;19.10;52.80
29321;DHT22;16323;51.130;6.612;2023-06-04T08:56:15;19.10;51.60
29321;DHT22;16323;51.130;6.612;2023-06-04T08:58:43;19.20;50.00
29321;DHT22;16323;51.130;6.612;2023-06-04T09:01:11;19.30;52.50
29321;DHT22;16323;51.130;6.612;2023-06-04T09:03:38;19.30;52.80
29321;DHT22;16323;51.130;6.612;2023-06-04T09:06:05;19.40;47.70
29321;DHT22;16323;51.130;6.612;2023-06-04T09:08:37;19.70;48.80
29321;DHT22;16323;51.130;6.612;2023-06-04T09:11:08;19.80;41.70
29321;DHT22;16323;51.130;6.612;2023-06-04T09:13:36;19.70;50.40
29321;DHT22;16323;51.130;6.612;2023-06-04T09:16:04;19.60;43.30
29321;DHT22;16323;51.130;6.612;2023-06-04T09:18:31;19.30;41.60
29321;DHT22;16323;51.130;6.612;2023-06-04T09:21:02;19.20;45.00
29321;DHT22;16323;51.130;6.612;2023-06-04T09:23:33;19.40;43.10
29321;DHT22;16323;51.130;6.612;2023-06-04T09:26:07;19.40;42.40
29321;DHT22;16323;51.130;6.612;2023-06-04T09:28:34;19.70;46.70
29321;DHT22;16323;51.130;6.612;2023-06-04T09:31:01;19.70;40.60
29321;DHT22;16323;51.130;6.612;2023-06-04T09:33:28;19.80;46.50
29321;DHT22;16323;51.130;6.612;2023-06-04T09:35:57;19.70;43.30
29321;DHT22;16323;51.130;6.612;2023-06-04T09:38:33;19.60;41.10
29321;DHT22;16323;51.130;6.612;2023-06-04T09:40:59;19.70;42.50
29321;DHT22;16323;51.130;6.612;2023-06-04T09:43:30;19.80;40.90
29321;DHT22;16323;51.130;6.612;2023-06-04T09:46:08;19.80;44.80
29321;DHT22;16323;51.130;6.612;2023-06-04T09:48:35;19.90;41.00
29321;DHT22;16323;51.130;6.612;2023-06-04T09:51:06;20.00;40.30
29321;DHT22;16323;51.130;6.612;2023-06-04T09:53:35;19.90;40.30
29321;DHT22;16323;51.130;6.612;2023-06-04T09:56:02;19.80;44.90
29321;DHT22;16323;51.130;6.612;2023-06-04T09:58:30;19.80;44.70
29321;DHT22;16323;51.130;6.612;2023-06-04T10:00:58;19.90;44.80
29321;DHT22;16323;51.130;6.612;2023-06-04T10:03:30;19.90;40.80
29321;DHT22;16323;51.130;6.612;2023-06-04T10:05:59;19.80;41.60
29321;DHT22;16323;51.130;6.612;2023-06-04T10:08:27;19.80;45.40
29321;DHT22;16323;51.130;6.612;2023-06-04T10:10:58;19.70;45.30
29321;DHT22;16323;51.130;6.612;2023-06-04T10:13:27;19.60;44.20
29321;DHT22;16323;51.130;6.612;2023-06-04T10:15:56;19.60;46.40
29321;DHT22;16323;51.130;6.612;2023-06-04T10:18:24;19.90;39.20
29321;DHT22;16323;51.130;6.612;2023-06-04T10:20:53;19.90;42.10
29321;DHT22;16323;51.130;6.612;2023-06-04T10:23:21;20.00;40.30
29321;DHT22;16323;51.130;6.612;2023-06-04T10:25:49;20.20;39.40
29321;DHT22;16323;51.130;6.612;2023-06-04T10:28:18;20.00;40.00
29321;DHT22;16323;51.130;6.612;2023-06-04T10:30:45;19.80;40.10
29321;DHT22;16323;51.130;6.612;2023-06-04T10:33:12;20.00;41.00
29321;DHT22;16323;51.130;6.612;2023-06-04T10:35:39;20.10;39.50
29321;DHT22;16323;51.130;6.612;2023-06-04T10:38:07;20.10;40.40
29321;DHT22;16323;51.130;6.612;2023-06-04T10:40:34;20.00;42.70
29321;DHT22;16323;51.130;6.612;2023-06-04T10:43:05;20.20;44.00
29321;DHT22;16323;51.130;6.612;2023-06-04T10:45:33;20.30;44.80
29321;DHT22;16323;51.130;6.612;2023-06-04T10:48:00;20.30;41.30
29321;DHT22;16323;51.130;6.612;2023-06-04T10:50:27;20.40;40.00
29321;DHT22;16323;51.130;6.612;2023-06-04T10:52:55;20.30;43.00
29321;DHT22;16323;51.130;6.612;2023-06-04T10:55:23;20.20;38.60
29321;DHT22;16323;51.130;6.612;2023-06-04T10:57:53;20.10;42.20
29321;DHT22;16323;51.130;6.612;2023-06-04T11:00:21;20.10;45.30
29321;DHT22;16323;51.130;6.612;2023-06-04T11:02:54;20.20;41.10
29321;DHT22;16323;51.130;6.612;2023-06-04T11:05:21;20.30;39.90
29321;DHT22;16323;51.130;6.612;2023-06-04T11:07:49;20.50;39.30
29321;DHT22;16323;51.130;6.612;2023-06-04T11:10:17;20.40;40.20
29321;DHT22;16323;51.130;6.612;2023-06-04T11:12:45;20.40;39.20
29321;DHT22;16323;51.130;6.612;2023-06-04T11:15:12;20.40;40.90
29321;DHT22;16323;51.130;6.612;2023-06-04T11:17:48;20.30;38.30
29321;DHT22;16323;51.130;6.612;2023-06-04T11:20:17;20.50;38.80
29321;DHT22;16323;51.130;6.612;2023-06-04T11:22:51;20.70;39.30
29321;DHT22;16323;51.130;6.612;2023-06-04T11:25:17;20.30;39.30
29321;DHT22;16323;51.130;6.612;2023-06-04T11:27:45;20.10;40.70
29321;DHT22;16323;51.130;6.612;2023-06-04T11:30:12;20.10;40.40
29321;DHT22;16323;51.130;6.612;2023-06-04T11:32:40;20.00;41.80
29321;DHT22;16323;51.130;6.612;2023-06-04T11:35:07;19.90;44.40
29321;DHT22;16323;51.130;6.612;2023-06-04T11:37:38;19.80;44.00
29321;DHT22;16323;51.130;6.612;2023-06-04T11:40:15;19.80;45.10
29321;DHT22;16323;51.130;6.612;2023-06-04T11:42:43;19.70;44.20
29321;DHT22;16323;51.130;6.612;2023-06-04T11:45:12;20.10;39.50
29321;DHT22;16323;51.130;6.612;2023-06-04T11:47:40;20.70;38.10
29321;DHT22;16323;51.130;6.612;2023-06-04T11:50:08;20.90;37.50
29321;DHT22;16323;51.130;6.612;2023-06-04T11:52:37;20.70;37.60
29321;DHT22;16323;51.130;6.612;2023-06-04T11:55:05;20.70;37.90
29321;DHT22;16323;51.130;6.612;2023-06-04T11:57:34;20.70;37.10
29321;DHT22;16323;51.130;6.612;2023-06-04T12:00:01;20.90;38.70
29321;DHT22;16323;51.130;6.612;2023-06-04T12:02:30;20.70;39.30
29321;DHT22;16323;51.130;6.612;2023-06-04T12:04:57;20.60;37.50
29321;DHT22;16323;51.130;6.612;2023-06-04T12:07:24;20.60;38.50
29321;DHT22;16323;51.130;6.612;2023-06-04T12:09:52;20.40;41.50
29321;DHT22;16323;51.130;6.612;2023-06-04T12:12:22;20.70;38.10
29321;DHT22;16323;51.130;6.612;2023-06-04T12:14:57;20.80;39.60
29321;DHT22;16323;51.130;6.612;2023-06-04T12:17:24;20.70;38.70
29321;DHT22;16323;51.130;6.612;2023-06-04T12:19:51;20.80;38.10
29321;DHT22;16323;51.130;6.612;2023-06-04T12:22:18;20.90;36.80
29321;DHT22;16323;51.130;6.612;2023-06-04T12:24:47;20.90;38.00
29321;DHT22;16323;51.130;6.612;2023-06-04T12:27:16;20.70;38.50
29321;DHT22;16323;51.130;6.612;2023-06-04T12:29:42;21.30;37.30
29321;DHT22;16323;51.130;6.612;2023-06-04T12:32:10;21.00;36.90
29321;DHT22;16323;51.130;6.612;2023-06-04T12:34:37;21.20;35.70
29321;DHT22;16323;51.130;6.612;2023-06-04T12:37:04;21.30;35.80
29321;DHT22;16323;51.130;6.612;2023-06-04T12:39:32;21.20;35.10
29321;DHT22;16323;51.130;6.612;2023-06-04T12:41:58;21.30;34.10
29321;DHT22;16323;51.130;6.612;2023-06-04T12:44:27;21.50;33.80
29321;DHT22;16323;51.130;6.612;2023-06-04T12:46:54;21.40;34.40
29321;DHT22;16323;51.130;6.612;2023-06-04T12:49:20;21.40;36.20
29321;DHT22;16323;51.130;6.612;2023-06-04T12:51:47;21.20;36.60
29321;DHT22;16323;51.130;6.612;2023-06-04T12:54:14;21.10;35.00
29321;DHT22;16323;51.130;6.612;2023-06-04T12:56:41;21.10;36.40
29321;DHT22;16323;51.130;6.612;2023-06-04T12:59:09;20.70;37.10
29321;DHT22;16323;51.130;6.612;2023-06-04T13:01:37;20.40;40.20
29321;DHT22;16323;51.130;6.612;2023-06-04T13:04:04;20.10;41.10
29321;DHT22;16323;51.130;6.612;2023-06-04T13:06:31;19.90;42.20
29321;DHT22;16323;51.130;6.612;2023-06-04T13:08:58;19.90;42.40
29321;DHT22;16323;51.130;6.612;2023-06-04T13:11:25;19.90;42.20
29321;DHT22;16323;51.130;6.612;2023-06-04T13:13:51;19.80;43.20
29321;DHT22;16323;51.130;6.612;2023-06-04T13:16:18;19.90;43.20
29321;DHT22;16323;51.130;6.612;2023-06-04T13:18:46;19.90;42.00
29321;DHT22;16323;51.130;6.612;2023-06-04T13:21:13;19.80;42.20
29321;DHT22;16323;51.130;6.612;2023-06-04T13:23:40;20.20;36.20
29321;DHT22;16323;51.130;6.612;2023-06-04T13:26:08;20.20;40.60
29321;DHT22;16323;51.130;6.612;2023-06-04T13:28:34;19.90;41.50
29321;DHT22;16323;51.130;6.612;2023-06-04T13:31:01;20.60;34.90
29321;DHT22;16323;51.130;6.612;2023-06-04T13:33:28;22.10;32.40
29321;DHT22;16323;51.130;6.612;2023-06-04T13:35:56;22.20;30.90
29321;DHT22;16323;51.130;6.612;2023-06-04T13:38:23;21.90;31.80
29321;DHT22;16323;51.130;6.612;2023-06-04T13:40:50;22.50;30.30
29321;DHT22;16323;51.130;6.612;2023-06-04T13:43:16;22.50;30.60
29321;DHT22;16323;51.130;6.612;2023-06-04T13:45:43;22.90;30.80
29321;DHT22;16323;51.130;6.612;2023-06-04T13:48:11;22.10;34.10
29321;DHT22;16323;51.130;6.612;2023-06-04T13:50:38;21.60;36.00
29321;DHT22;16323;51.130;6.612;2023-06-04T13:53:07;21.30;38.80
29321;DHT22;16323;51.130;6.612;2023-06-04T13:55:34;21.70;34.10
29321;DHT22;16323;51.130;6.612;2023-06-04T13:58:00;21.80;33.80
29321;DHT22;16323;51.130;6.612;2023-06-04T14:00:27;21.70;36.60
29321;DHT22;16323;51.130;6.612;2023-06-04T14:02:56;22.00;33.60
29321;DHT22;16323;51.130;6.612;2023-06-04T14:05:24;22.30;33.20
29321;DHT22;16323;51.130;6.612;2023-06-04T14:07:53;21.80;37.20
29321;DHT22;16323;51.130;6.612;2023-06-04T14:10:21;21.90;31.40
29321;DHT22;16323;51.130;6.612;2023-06-04T14:12:48;23.60;29.80
29321;DHT22;16323;51.130;6.612;2023-06-04T14:15:15;23.80;28.90
29321;DHT22;16323;51.130;6.612;2023-06-04T14:17:42;24.10;29.10
29321;DHT22;16323;51.130;6.612;2023-06-04T14:20:09;24.40;30.40
29321;DHT22;16323;51.130;6.612;2023-06-04T14:22:37;24.50;29.60
29321;DHT22;16323;51.130;6.612;2023-06-04T14:25:04;23.50;32.00
29321;DHT22;16323;51.130;6.612;2023-06-04T14:27:33;22.40;35.30
29321;DHT22;16323;51.130;6.612;2023-06-04T14:30:01;22.80;30.20
29321;DHT22;16323;51.130;6.612;2023-06-04T14:32:27;23.20;29.50
29321;DHT22;16323;51.130;6.612;2023-06-04T14:34:54;23.10;32.10
29321;DHT22;16323;51.130;6.612;2023-06-04T14:37:22;22.30;35.10
29321;DHT22;16323;51.130;6.612;2023-06-04T14:39:49;22.30;30.80
29321;DHT22;16323;51.130;6.612;2023-06-04T14:42:16;24.20;29.20
29321;DHT22;16323;51.130;6.612;2023-06-04T14:44:45;23.60;30.90
29321;DHT22;16323;51.130;6.612;2023-06-04T14:47:12;22.90;34.40
29321;DHT22;16323;51.130;6.612;2023-06-04T14:49:39;22.10;33.20
29321;DHT22;16323;51.130;6.612;2023-06-04T14:52:06;24.10;30.20
29321;DHT22;16323;51.130;6.612;2023-06-04T14:54:33;23.10;34.20
29321;DHT22;16323;51.130;6.612;2023-06-04T14:57:00;22.40;35.50
29321;DHT22;16323;51.130;6.612;2023-06-04T14:59:27;21.80;38.50
29321;DHT22;16323;51.130;6.612;2023-06-04T15:01:55;21.40;40.00
29321;DHT22;16323;51.130;6.612;2023-06-04T15:04:22;21.30;40.70
29321;DHT22;16323;51.130;6.612;2023-06-04T15:06:49;21.30;40.40
29321;DHT22;16323;51.130;6.612;2023-06-04T15:09:16;23.00;31.80
29321;DHT22;16323;51.130;6.612;2023-06-04T15:11:42;24.70;30.70
29321;DHT22;16323;51.130;6.612;2023-06-04T15:14:09;23.10;35.20
29321;DHT22;16323;51.130;6.612;2023-06-04T15:16:36;22.10;36.20
29321;DHT22;16323;51.130;6.612;2023-06-04T15:19:04;24.20;29.10
29321;DHT22;16323;51.130;6.612;2023-06-04T15:21:31;23.80;29.90
29321;DHT22;16323;51.130;6.612;2023-06-04T15:23:57;23.20;33.30
29321;DHT22;16323;51.130;6.612;2023-06-04T15:26:24;23.00;33.20
29321;DHT22;16323;51.130;6.612;2023-06-04T15:28:52;23.20;33.20
29321;DHT22;16323;51.130;6.612;2023-06-04T15:31:19;23.10;32.60
29321;DHT22;16323;51.130;6.612;2023-06-04T15:33:46;22.40;35.70